createdAt,value
2022-12-23T00:01:09.188Z,8.70
2022-12-23T00:03:35.844Z,13.13
2022-12-23T00:06:08.985Z,12.85
2022-12-23T00:08:36.336Z,11.20
2022-12-23T00:11:05.552Z,11.93
2022-12-23T00:13:50.859Z,13.53
2022-12-23T00:16:17.592Z,11.85
2022-12-23T00:18:44.032Z,15.63
2022-12-23T00:21:13.994Z,16.17
2022-12-23T00:23:42.916Z,17.48
2022-12-23T00:26:15.615Z,13.30
2022-12-23T00:28:42.249Z,20.13
2022-12-23T00:31:09.572Z,25.88
2022-12-23T00:33:44.185Z,12.48
2022-12-23T00:36:13.134Z,13.45
2022-12-23T00:38:58.280Z,14.07
2022-12-23T00:41:43.681Z,10.60
2022-12-23T00:44:10.131Z,9.20
2022-12-23T00:46:37.076Z,8.95
2022-12-23T00:49:23.204Z,8.90
2022-12-23T00:51:49.697Z,11.07
2022-12-23T00:54:16.771Z,7.32
2022-12-23T00:56:43.325Z,16.17
2022-12-23T00:59:09.687Z,16.65
2022-12-23T01:01:54.865Z,15.10
2022-12-23T01:04:40.708Z,15.43
2022-12-23T01:07:07.195Z,14.38
2022-12-23T01:09:34.331Z,14.07
2022-12-23T01:12:00.821Z,10.55
2022-12-23T01:14:27.484Z,12.98
2022-12-23T01:16:53.950Z,9.10
2022-12-23T01:19:20.335Z,14.05
2022-12-23T01:21:46.805Z,5.72
2022-12-23T01:24:13.225Z,9.20
2022-12-23T01:26:39.676Z,11.45
2022-12-23T01:29:06.035Z,8.93
2022-12-23T01:31:32.524Z,4.10
2022-12-23T01:33:59.024Z,9.85
2022-12-23T01:36:25.482Z,10.30
2022-12-23T01:38:52.189Z,14.38
2022-12-23T01:41:46.477Z,7.43
2022-12-23T01:44:47.637Z,13.73
2022-12-23T01:47:23.794Z,18.67
2022-12-23T01:49:54.912Z,11.20
2022-12-23T01:52:22.495Z,10.40
2022-12-23T01:54:48.952Z,11.40
2022-12-23T01:57:15.641Z,12.10
2022-12-23T02:00:02.059Z,17.98
2022-12-23T02:02:50.081Z,17.50
2022-12-23T02:05:17.026Z,15.77
2022-12-23T02:08:02.648Z,15.80
2022-12-23T02:10:38.177Z,12.18
2022-12-23T02:13:23.691Z,9.65
2022-12-23T02:16:16.793Z,6.85
2022-12-23T02:18:59.271Z,11.05
2022-12-23T02:21:28.704Z,15.63
2022-12-23T02:24:32.677Z,13.25
2022-12-23T02:27:23.543Z,13.75
2022-12-23T02:30:04.947Z,11.25
2022-12-23T02:32:55.601Z,9.73
2022-12-23T02:35:31.876Z,12.17
2022-12-23T02:38:10.388Z,11.90
2022-12-23T02:41:01.722Z,15.00
2022-12-23T02:43:39.329Z,9.55
2022-12-23T02:46:30.551Z,10.38
2022-12-23T02:49:04.838Z,8.53
2022-12-23T02:51:36.638Z,11.43
2022-12-23T02:54:08.029Z,8.35
2022-12-23T02:56:38.071Z,6.45
2022-12-23T02:59:11.100Z,7.63
2022-12-23T03:01:38.797Z,8.17
2022-12-23T03:04:06.893Z,7.53
2022-12-23T03:06:41.596Z,6.57
2022-12-23T03:09:08.385Z,9.57
2022-12-23T03:11:46.972Z,10.65
2022-12-23T03:14:32.009Z,7.70
2022-12-23T03:17:04.516Z,7.15
2022-12-23T03:19:45.979Z,9.52
2022-12-23T03:22:34.765Z,9.65
2022-12-23T03:25:11.446Z,11.35
2022-12-23T03:28:01.516Z,5.80
2022-12-23T03:30:29.373Z,6.25
2022-12-23T03:33:01.683Z,9.40
2022-12-23T03:35:36.103Z,6.35
2022-12-23T03:38:03.944Z,8.80
2022-12-23T03:40:37.931Z,12.27
2022-12-23T03:43:09.657Z,6.03
2022-12-23T03:45:42.849Z,10.82
2022-12-23T03:48:37.537Z,10.30
2022-12-23T03:51:28.250Z,8.45
2022-12-23T03:54:01.528Z,11.93
2022-12-23T03:56:39.843Z,10.00
2022-12-23T03:59:21.418Z,10.20
2022-12-23T04:02:02.748Z,8.43
2022-12-23T04:04:41.161Z,11.25
2022-12-23T04:07:17.467Z,8.97
2022-12-23T04:09:44.829Z,6.78
2022-12-23T04:12:14.268Z,11.65
2022-12-23T04:14:47.574Z,9.65
2022-12-23T04:17:14.367Z,7.07
2022-12-23T04:19:42.021Z,10.13
2022-12-23T04:22:08.438Z,7.78
2022-12-23T04:24:34.833Z,8.43
2022-12-23T04:27:01.304Z,5.78
2022-12-23T04:29:27.700Z,3.55
2022-12-23T04:31:54.133Z,9.60
2022-12-23T04:34:20.594Z,8.68
2022-12-23T04:36:46.968Z,9.60
2022-12-23T04:39:13.468Z,11.38
2022-12-23T04:41:39.808Z,12.23
2022-12-23T04:44:07.436Z,9.17
2022-12-23T04:46:33.954Z,9.45
2022-12-23T04:49:00.374Z,7.28
2022-12-23T04:51:26.794Z,8.63
2022-12-23T04:53:53.236Z,10.20
2022-12-23T04:56:19.599Z,7.70
2022-12-23T04:58:46.018Z,6.90
2022-12-23T05:01:12.718Z,5.32
2022-12-23T05:03:39.814Z,6.13
2022-12-23T05:06:07.221Z,7.35
2022-12-23T05:08:33.870Z,6.83
2022-12-23T05:11:00.283Z,6.05
2022-12-23T05:13:26.939Z,9.55
2022-12-23T05:15:54.753Z,7.07
2022-12-23T05:18:22.024Z,4.75
2022-12-23T05:20:49.152Z,6.47
2022-12-23T05:23:15.514Z,6.03
2022-12-23T05:25:41.880Z,6.18
2022-12-23T05:28:09.473Z,8.60
2022-12-23T05:30:36.069Z,5.30
2022-12-23T05:33:02.680Z,8.03
2022-12-23T05:35:29.070Z,5.28
2022-12-23T05:37:55.596Z,6.85
2022-12-23T05:40:24.880Z,7.70
2022-12-23T05:42:54.041Z,14.80
2022-12-23T05:45:20.798Z,10.93
2022-12-23T05:47:47.203Z,8.90
2022-12-23T05:50:14.009Z,5.78
2022-12-23T05:52:40.520Z,4.35
2022-12-23T05:55:07.530Z,5.80
2022-12-23T05:57:33.850Z,6.60
2022-12-23T06:00:00.240Z,6.80
2022-12-23T06:02:26.813Z,9.65
2022-12-23T06:04:53.337Z,7.65
2022-12-23T06:07:19.696Z,7.13
2022-12-23T06:09:46.157Z,6.87
2022-12-23T06:12:12.972Z,4.25
2022-12-23T06:14:39.376Z,6.15
2022-12-23T06:17:05.850Z,5.35
2022-12-23T06:19:32.328Z,6.95
2022-12-23T06:21:58.705Z,4.23
2022-12-23T06:24:25.055Z,7.55
2022-12-23T06:26:56.807Z,5.82
2022-12-23T06:29:24.246Z,6.75
2022-12-23T06:31:50.758Z,4.72
2022-12-23T06:34:17.259Z,4.43
2022-12-23T06:36:43.712Z,5.68
2022-12-23T06:39:10.758Z,5.68
2022-12-23T06:41:37.165Z,5.05
2022-12-23T06:44:03.667Z,4.13
2022-12-23T06:46:30.119Z,4.73
2022-12-23T06:48:56.553Z,5.18
2022-12-23T06:51:22.896Z,4.70
2022-12-23T06:53:49.360Z,4.45
2022-12-23T06:56:15.763Z,4.50
2022-12-23T06:58:42.209Z,6.43
2022-12-23T07:01:10.093Z,4.70
2022-12-23T07:03:36.936Z,5.88
2022-12-23T07:06:03.621Z,4.78
2022-12-23T07:08:30.025Z,6.15
2022-12-23T07:11:04.927Z,6.90
2022-12-23T07:13:32.874Z,5.47
2022-12-23T07:15:59.634Z,8.05
2022-12-23T07:18:26.260Z,4.35
2022-12-23T07:20:52.704Z,7.38
2022-12-23T07:23:19.097Z,6.73
2022-12-23T07:25:45.599Z,5.50
2022-12-23T07:28:12.015Z,5.55
2022-12-23T07:30:38.552Z,7.03
2022-12-23T07:33:04.884Z,5.07
2022-12-23T07:35:31.212Z,4.93
2022-12-23T07:37:57.593Z,16.25
2022-12-23T07:40:25.238Z,9.50
2022-12-23T07:42:56.938Z,12.68
2022-12-23T07:45:24.218Z,12.55
2022-12-23T07:47:54.621Z,13.70
2022-12-23T07:50:21.431Z,11.15
2022-12-23T07:52:47.920Z,11.27
2022-12-23T07:55:14.728Z,9.20
2022-12-23T07:57:41.261Z,11.23
2022-12-23T08:00:11.990Z,9.30
2022-12-23T08:02:38.458Z,12.23
2022-12-23T08:05:05.732Z,9.45
2022-12-23T08:07:32.189Z,8.73
2022-12-23T08:09:58.580Z,14.05
2022-12-23T08:12:25.255Z,7.23
2022-12-23T08:14:52.617Z,10.85
2022-12-23T08:17:21.340Z,10.32
2022-12-23T08:19:48.968Z,11.15
2022-12-23T08:22:15.672Z,16.40
2022-12-23T08:24:42.145Z,12.43
2022-12-23T08:27:08.693Z,13.80
2022-12-23T08:29:36.594Z,17.48
2022-12-23T08:32:03.179Z,15.60
2022-12-23T08:34:29.537Z,22.13
2022-12-23T08:36:55.871Z,27.37
2022-12-23T08:39:22.365Z,20.67
2022-12-23T08:41:48.948Z,16.63
2022-12-23T08:44:16.800Z,22.40
2022-12-23T08:46:44.082Z,12.85
2022-12-23T08:49:10.596Z,19.67
2022-12-23T08:51:38.091Z,22.98
2022-12-23T08:54:05.479Z,21.55
2022-12-23T08:56:34.937Z,17.30
2022-12-23T08:59:01.413Z,21.02
2022-12-23T09:01:30.114Z,28.60
2022-12-23T09:03:57.223Z,23.52
2022-12-23T09:06:30.434Z,24.98
2022-12-23T09:08:58.130Z,23.90
2022-12-23T09:11:27.063Z,25.48
2022-12-23T09:13:54.057Z,23.43
2022-12-23T09:16:20.545Z,28.63
2022-12-23T09:18:47.087Z,28.83
2022-12-23T09:21:18.088Z,31.85
2022-12-23T09:23:44.495Z,30.23
2022-12-23T09:26:12.414Z,22.13
2022-12-23T09:28:39.619Z,29.95
2022-12-23T09:31:08.651Z,25.40
2022-12-23T09:33:35.711Z,38.90
2022-12-23T09:36:03.325Z,25.25
2022-12-23T09:38:29.798Z,36.97
2022-12-23T09:41:22.566Z,29.40
2022-12-23T09:44:03.315Z,33.40
2022-12-23T09:46:34.001Z,52.67
2022-12-23T09:49:10.631Z,40.13
2022-12-23T09:51:37.167Z,59.60
2022-12-23T09:54:23.323Z,42.03
2022-12-23T09:56:52.497Z,56.85
2022-12-23T09:59:42.363Z,64.85
2022-12-23T10:02:19.007Z,56.55
2022-12-23T10:05:02.803Z,45.40
2022-12-23T10:07:43.558Z,49.53
2022-12-23T10:10:46.928Z,54.15
2022-12-23T10:13:22.577Z,48.20
2022-12-23T10:15:52.463Z,65.38
2022-12-23T10:18:49.388Z,37.97
2022-12-23T10:21:31.346Z,36.97
2022-12-23T10:24:03.630Z,43.28
2022-12-23T10:26:41.558Z,33.33
2022-12-23T10:29:19.455Z,42.20
2022-12-23T10:32:16.928Z,38.33
2022-12-23T10:35:01.000Z,31.05
2022-12-23T10:37:35.141Z,31.17
2022-12-23T10:40:13.326Z,37.95
2022-12-23T10:42:49.629Z,30.60
2022-12-23T10:45:21.746Z,27.10
2022-12-23T10:47:52.638Z,23.42
2022-12-23T10:50:34.580Z,31.58
2022-12-23T10:53:04.577Z,28.70
2022-12-23T10:55:36.110Z,34.25
2022-12-23T10:58:08.805Z,24.30
2022-12-23T11:00:38.813Z,28.63
2022-12-23T11:03:27.777Z,28.85
2022-12-23T11:05:55.851Z,31.55
2022-12-23T11:08:24.233Z,28.42
2022-12-23T11:10:50.669Z,29.23
2022-12-23T11:13:32.435Z,29.20
2022-12-23T11:16:31.183Z,30.88
2022-12-23T11:19:15.016Z,30.92
2022-12-23T11:21:55.296Z,29.15
2022-12-23T11:24:23.001Z,32.47
2022-12-23T11:26:59.565Z,40.25
2022-12-23T11:29:35.447Z,34.95
2022-12-23T11:32:04.974Z,36.97
2022-12-23T11:34:38.360Z,33.00
2022-12-23T11:37:07.565Z,31.60
2022-12-23T11:39:37.082Z,42.08
2022-12-23T11:42:11.326Z,36.40
2022-12-23T11:44:37.628Z,38.10
2022-12-23T11:47:22.561Z,48.60
2022-12-23T11:49:57.496Z,41.90
2022-12-23T11:52:29.944Z,50.42
2022-12-23T11:55:01.918Z,51.65
2022-12-23T11:57:42.900Z,48.92
2022-12-23T12:00:20.494Z,46.53
2022-12-23T12:02:52.684Z,54.07
2022-12-23T12:05:31.361Z,54.13
2022-12-23T12:08:03.853Z,51.00
2022-12-23T12:10:33.341Z,50.97
2022-12-23T12:13:03.573Z,47.47
2022-12-23T12:15:44.137Z,42.40
2022-12-23T12:18:15.099Z,45.65
2022-12-23T12:20:48.416Z,48.47
2022-12-23T12:23:20.991Z,38.80
2022-12-23T12:25:55.295Z,47.28
2022-12-23T12:28:25.707Z,40.87
2022-12-23T12:31:11.599Z,50.53
2022-12-23T12:33:48.466Z,36.45
2022-12-23T12:36:30.132Z,31.35
2022-12-23T12:38:59.004Z,40.10
2022-12-23T12:41:38.395Z,39.90
2022-12-23T12:44:45.308Z,35.03
2022-12-23T12:47:36.743Z,25.73
2022-12-23T12:50:16.449Z,25.73
2022-12-23T12:52:43.359Z,30.77
2022-12-23T12:55:33.221Z,32.13
2022-12-23T12:58:02.604Z,28.90
2022-12-23T13:00:35.573Z,30.30
2022-12-23T13:03:24.934Z,30.88
2022-12-23T13:06:30.648Z,30.58
2022-12-23T13:09:34.832Z,28.50
2022-12-23T13:12:14.634Z,34.72
2022-12-23T13:15:11.660Z,22.10
2022-12-23T13:18:12.059Z,31.52
2022-12-23T13:21:06.444Z,26.30
2022-12-23T13:23:47.722Z,34.70
2022-12-23T13:26:17.713Z,31.40
2022-12-23T13:29:08.306Z,27.73
2022-12-23T13:31:50.196Z,33.95
2022-12-23T13:34:25.908Z,24.40
2022-12-23T13:37:16.953Z,30.63
2022-12-23T13:39:52.905Z,31.08
2022-12-23T13:42:32.438Z,31.95
2022-12-23T13:45:01.122Z,26.27
2022-12-23T13:48:05.554Z,19.48
2022-12-23T13:50:38.509Z,27.20
2022-12-23T13:53:21.843Z,31.77
2022-12-23T13:55:59.409Z,18.83
2022-12-23T13:58:28.568Z,22.73
2022-12-23T14:01:07.905Z,26.02
2022-12-23T14:03:36.300Z,22.13
2022-12-23T14:06:22.045Z,21.33
2022-12-23T14:08:49.633Z,19.00
2022-12-23T14:11:19.343Z,20.65
2022-12-23T14:13:51.916Z,19.00
2022-12-23T14:16:21.375Z,30.77
2022-12-23T14:19:03.092Z,27.45
2022-12-23T14:21:50.787Z,22.48
2022-12-23T14:24:39.057Z,22.17
2022-12-23T14:27:36.577Z,21.48
2022-12-23T14:30:14.329Z,17.17
2022-12-23T14:32:58.655Z,16.02
2022-12-23T14:35:27.847Z,19.75
2022-12-23T14:38:15.785Z,20.83
2022-12-23T14:40:42.120Z,22.38
2022-12-23T14:43:26.739Z,17.60
2022-12-23T14:45:58.033Z,16.88
2022-12-23T14:48:33.610Z,16.13
2022-12-23T14:51:20.954Z,20.60
2022-12-23T14:53:59.299Z,17.05
2022-12-23T14:56:41.032Z,15.30
2022-12-23T15:02:36.870Z,17.23
2022-12-23T15:05:03.846Z,15.93
2022-12-23T15:07:43.043Z,18.98
2022-12-23T15:10:21.612Z,11.47
2022-12-23T15:12:52.152Z,23.65
2022-12-23T15:15:22.443Z,14.73
2022-12-23T15:17:49.138Z,19.92
2022-12-23T15:20:20.109Z,15.90
2022-12-23T15:22:48.053Z,15.03
2022-12-23T15:25:24.390Z,15.13
2022-12-23T15:27:57.371Z,16.73
2022-12-23T15:30:30.359Z,13.80
2022-12-23T15:33:02.656Z,19.60
2022-12-23T15:35:33.388Z,12.80
2022-12-23T15:38:01.528Z,16.05
2022-12-23T15:41:13.347Z,15.98
2022-12-23T15:43:44.764Z,18.38
2022-12-23T15:46:29.371Z,12.65
2022-12-23T15:48:56.722Z,9.33
2022-12-23T15:54:22.487Z,9.85
2022-12-23T15:56:52.094Z,17.05
2022-12-23T15:59:25.419Z,11.93
2022-12-23T16:01:52.740Z,19.63
2022-12-23T16:04:24.991Z,17.02
2022-12-23T16:06:51.877Z,14.65
2022-12-23T16:09:19.043Z,17.58
2022-12-23T16:11:51.523Z,11.52
2022-12-23T16:14:32.783Z,15.97
2022-12-23T16:17:15.285Z,16.05
2022-12-23T16:19:49.944Z,16.92
2022-12-23T16:22:36.199Z,19.42
2022-12-23T16:25:11.817Z,11.38
2022-12-23T16:27:48.036Z,13.77
2022-12-23T16:30:18.301Z,19.00
2022-12-23T16:32:55.030Z,9.63
2022-12-23T16:35:38.025Z,9.48
2022-12-23T16:38:22.287Z,10.80
2022-12-23T16:40:56.637Z,12.70
2022-12-23T16:43:24.698Z,14.82
2022-12-23T16:45:54.411Z,13.98
2022-12-23T16:48:23.855Z,10.00
2022-12-23T16:50:52.363Z,11.55
2022-12-23T16:53:19.419Z,10.47
2022-12-23T16:55:52.452Z,11.32
2022-12-23T16:58:23.237Z,10.93
2022-12-23T17:00:50.609Z,13.23
2022-12-23T17:03:19.195Z,18.98
2022-12-23T17:05:47.011Z,16.90
2022-12-23T17:08:13.429Z,14.02
2022-12-23T17:10:42.275Z,13.02
2022-12-23T17:13:11.929Z,13.30
2022-12-23T17:15:38.616Z,17.92
2022-12-23T17:18:12.306Z,21.40
2022-12-23T17:20:38.823Z,15.05
2022-12-23T17:23:06.198Z,16.98
2022-12-23T17:25:32.560Z,10.85
2022-12-23T17:27:59.038Z,9.32
2022-12-23T17:30:25.676Z,13.30
2022-12-23T17:32:56.496Z,15.65
2022-12-23T17:35:24.684Z,14.50
2022-12-23T17:37:51.740Z,19.70
2022-12-23T17:40:18.312Z,14.88
2022-12-23T17:42:45.784Z,13.33
2022-12-23T17:45:24.364Z,15.00
2022-12-23T17:47:50.780Z,12.80
2022-12-23T17:50:17.235Z,10.63
2022-12-23T17:52:43.645Z,17.25
2022-12-23T17:55:36.244Z,8.80
2022-12-23T17:58:03.526Z,15.50
2022-12-23T18:00:34.338Z,14.60
2022-12-23T18:03:01.504Z,18.20
2022-12-23T18:05:30.519Z,8.55
2022-12-23T18:07:58.918Z,16.97
2022-12-23T18:10:28.608Z,14.32
2022-12-23T18:12:58.090Z,15.10
2022-12-23T18:15:35.600Z,17.58
2022-12-23T18:18:11.062Z,19.17
2022-12-23T18:20:37.539Z,17.80
2022-12-23T18:23:05.019Z,14.50
2022-12-23T18:25:31.704Z,12.90
2022-12-23T18:27:58.094Z,11.27
2022-12-23T18:30:24.453Z,23.00
2022-12-23T18:32:50.827Z,25.87
2022-12-23T18:35:32.954Z,28.02
2022-12-23T18:38:00.333Z,27.77
2022-12-23T18:40:32.732Z,19.38
2022-12-23T18:42:59.935Z,24.77
2022-12-23T18:45:31.927Z,37.17
2022-12-23T18:47:59.197Z,41.33
2022-12-23T18:50:26.618Z,40.22
2022-12-23T18:52:53.556Z,24.30
2022-12-23T18:55:20.512Z,51.17
2022-12-23T18:57:48.268Z,62.70
2022-12-23T19:00:18.431Z,43.15
2022-12-23T19:02:45.155Z,50.53
2022-12-23T19:05:26.816Z,23.65
2022-12-23T19:07:56.041Z,35.58
2022-12-23T19:10:25.862Z,48.63
2022-12-23T19:12:53.061Z,51.75
2022-12-23T19:15:20.614Z,41.10
2022-12-23T19:17:47.308Z,34.25
2022-12-23T19:20:15.751Z,34.17
2022-12-23T19:22:42.448Z,23.73
2022-12-23T19:25:11.549Z,37.88
2022-12-23T19:27:39.797Z,42.95
2022-12-23T19:30:08.343Z,15.80
2022-12-23T19:32:34.786Z,46.63
2022-12-23T19:35:01.185Z,24.40
2022-12-23T19:37:27.721Z,40.72
2022-12-23T19:39:54.153Z,56.88
2022-12-23T19:42:20.672Z,16.35
2022-12-23T19:44:47.096Z,39.40
2022-12-23T19:47:13.921Z,38.40
2022-12-23T19:49:40.273Z,37.58
2022-12-23T19:52:06.852Z,37.03
2022-12-23T19:54:33.317Z,40.00
2022-12-23T19:56:59.733Z,37.50
2022-12-23T19:59:26.303Z,38.80
2022-12-23T20:01:52.829Z,29.98
2022-12-23T20:04:19.377Z,44.05
2022-12-23T20:06:46.021Z,47.10
2022-12-23T20:09:13.483Z,38.53
2022-12-23T20:11:42.875Z,36.43
2022-12-23T20:14:09.443Z,43.08
2022-12-23T20:16:36.975Z,43.10
2022-12-23T20:19:03.993Z,28.90
2022-12-23T20:21:30.568Z,49.53
2022-12-23T20:23:57.115Z,37.33
2022-12-23T20:26:23.883Z,23.83
2022-12-23T20:28:50.971Z,32.60
2022-12-23T20:31:22.689Z,39.95
2022-12-23T20:33:50.910Z,26.13
2022-12-23T20:36:20.830Z,29.47
2022-12-23T20:38:47.820Z,34.97
2022-12-23T20:41:21.890Z,36.55
2022-12-23T20:44:02.694Z,37.70
2022-12-23T20:46:35.149Z,18.23
2022-12-23T20:49:01.587Z,25.90
2022-12-23T20:51:27.954Z,25.20
2022-12-23T20:53:59.820Z,15.43
2022-12-23T20:56:27.736Z,17.73
2022-12-23T20:58:55.129Z,27.15
2022-12-23T21:01:25.467Z,16.53
2022-12-23T21:03:52.670Z,16.58
2022-12-23T21:06:20.159Z,16.10
2022-12-23T21:08:46.912Z,21.67
2022-12-23T21:11:13.516Z,21.67
2022-12-23T21:13:40.379Z,11.23
2022-12-23T21:16:09.650Z,10.77
2022-12-23T21:18:40.402Z,15.82
2022-12-23T21:21:07.073Z,21.85
2022-12-23T21:23:36.855Z,25.88
2022-12-23T21:26:24.037Z,14.33
2022-12-23T21:28:52.445Z,16.17
2022-12-23T21:31:22.078Z,12.82
2022-12-23T21:33:50.412Z,20.00
2022-12-23T21:36:20.524Z,20.10
2022-12-23T21:38:48.876Z,13.47
2022-12-23T21:41:23.240Z,19.98
2022-12-23T21:43:50.091Z,12.20
2022-12-23T21:46:18.884Z,8.38
2022-12-23T21:48:45.957Z,21.05
2022-12-23T21:51:16.776Z,26.70
2022-12-23T21:53:45.247Z,21.95
2022-12-23T21:56:14.830Z,8.70
2022-12-23T21:58:41.740Z,22.23
2022-12-23T22:01:15.501Z,20.33
2022-12-23T22:03:42.673Z,11.03
2022-12-23T22:06:14.644Z,8.70
2022-12-23T22:08:41.461Z,15.45
2022-12-23T22:11:11.162Z,13.15
2022-12-23T22:13:37.962Z,6.38
2022-12-23T22:16:08.040Z,23.13
2022-12-23T22:18:34.522Z,7.82
2022-12-23T22:21:05.215Z,25.52
2022-12-23T22:23:31.610Z,10.13
2022-12-23T22:25:58.021Z,11.00
2022-12-23T22:28:24.355Z,8.87
2022-12-23T22:30:50.793Z,13.65
2022-12-23T22:33:17.294Z,12.90
2022-12-23T22:35:43.863Z,17.40
2022-12-23T22:38:10.263Z,14.10
2022-12-23T22:40:36.583Z,17.20
2022-12-23T22:43:03.081Z,24.83
2022-12-23T22:45:29.564Z,20.27
2022-12-23T22:47:56.013Z,18.27
2022-12-23T22:50:22.464Z,10.95
2022-12-23T22:52:48.854Z,20.20
2022-12-23T22:55:15.311Z,14.50
2022-12-23T22:57:41.711Z,5.07
2022-12-23T23:00:12.579Z,11.32
2022-12-23T23:02:39.432Z,22.45
2022-12-23T23:05:12.345Z,17.80
2022-12-23T23:07:39.181Z,15.52
2022-12-23T23:10:06.228Z,10.80
2022-12-23T23:12:32.676Z,18.90
2022-12-23T23:14:59.071Z,19.98
2022-12-23T23:17:27.361Z,3.80
2022-12-23T23:19:54.371Z,13.55
2022-12-23T23:22:22.384Z,16.42
2022-12-23T23:24:49.218Z,20.38
2022-12-23T23:27:15.761Z,15.30
2022-12-23T23:29:42.510Z,24.07
2022-12-23T23:32:09.872Z,25.60
2022-12-23T23:34:37.008Z,19.58
2022-12-23T23:37:04.700Z,15.38
2022-12-23T23:39:31.085Z,24.83
2022-12-23T23:41:57.429Z,21.07
2022-12-23T23:44:23.806Z,19.63
2022-12-23T23:46:50.250Z,7.65
2022-12-23T23:49:16.713Z,16.00
2022-12-23T23:51:43.226Z,7.10
2022-12-23T23:54:10.385Z,24.33
2022-12-23T23:56:39.215Z,21.55
2022-12-23T23:59:07.074Z,19.27
